Time;durP1;ratioP1;P1;durP2;ratioP2;P2;SDS_P1;SDS_P2;PMS_P1;PMS_P2;Temp;Humidity;BMP_temperature;BMP_pressure;BME280_temperature;BME280_humidity;BME280_pressure;Samples;Min_cycle;Max_cycle;Signal;HPM_P1;HPM_P2
2022/03/07 00:01:08;;;;;;;27.43;18.63;;;;;;;3.28;100.00;99362.88;5051900;28;20303;-72
2022/03/07 00:03:35;;;;;;;36.43;22.67;;;;;;;3.20;100.00;99355.28;5052508;28;20205;-72
2022/03/07 00:06:01;;;;;;;31.63;21.00;;;;;;;3.24;100.00;99356.13;5049804;28;20193;-73
2022/03/07 00:08:29;;;;;;;34.43;22.40;;;;;;;3.21;100.00;99354.47;5051540;28;20205;-72
2022/03/07 00:10:56;;;;;;;32.73;19.37;;;;;;;3.20;100.00;99359.53;5052880;28;20287;-72
2022/03/07 00:13:24;;;;;;;35.10;20.10;;;;;;;3.19;100.00;99358.69;5052296;28;20279;-72
2022/03/07 00:15:51;;;;;;;37.27;21.73;;;;;;;3.17;100.00;99356.16;5053992;28;20292;-73
2022/03/07 00:18:18;;;;;;;46.90;22.73;;;;;;;3.10;100.00;99341.81;5054157;28;20197;-71
2022/03/07 00:20:45;;;;;;;41.20;24.27;;;;;;;3.07;100.00;99343.53;5054229;28;20299;-72
2022/03/07 00:23:12;;;;;;;58.40;27.47;;;;;;;3.12;100.00;99352.78;5054231;28;20204;-72
2022/03/07 00:25:39;;;;;;;47.87;24.77;;;;;;;3.06;100.00;99339.28;5054295;28;20253;-72
2022/03/07 00:28:06;;;;;;;48.87;23.40;;;;;;;3.12;100.00;99346.88;5053875;28;20283;-72
2022/03/07 00:30:35;;;;;;;45.63;22.87;;;;;;;3.05;100.00;99335.91;5053684;28;20300;-72
2022/03/07 00:33:02;;;;;;;51.27;23.07;;;;;;;3.05;100.00;99342.66;5054343;28;20588;-72
2022/03/07 00:35:28;;;;;;;51.33;23.30;;;;;;;3.01;100.00;99329.16;5053776;28;20204;-72
2022/03/07 00:37:55;;;;;;;57.27;22.03;;;;;;;2.93;100.00;99315.69;5054036;28;20224;-72
2022/03/07 00:40:22;;;;;;;66.23;27.90;;;;;;;3.01;100.00;99328.31;5053685;28;20205;-71
2022/03/07 00:42:49;;;;;;;58.07;24.83;;;;;;;2.98;100.00;99324.09;5053644;28;20304;-72
2022/03/07 00:45:16;;;;;;;65.00;27.00;;;;;;;2.98;100.00;99324.09;5053931;28;20196;-72
2022/03/07 00:47:44;;;;;;;62.43;27.17;;;;;;;2.94;100.00;99330.00;5053307;28;20231;-73
2022/03/07 00:50:11;;;;;;;76.20;28.10;;;;;;;2.96;100.00;99330.00;5053746;28;20205;-72
2022/03/07 00:52:38;;;;;;;69.80;30.63;;;;;;;2.81;100.00;99324.97;5052966;28;20554;-72
2022/03/07 00:55:07;;;;;;;86.57;30.20;;;;;;;2.75;100.00;99335.09;5053647;28;20366;-72
2022/03/07 00:57:34;;;;;;;72.57;28.57;;;;;;;2.71;100.00;99329.19;5053144;28;20240;-72
2022/03/07 01:00:01;;;;;;;67.53;27.17;;;;;;;2.65;100.00;99337.59;5053713;28;20288;-73
2022/03/07 01:02:28;;;;;;;63.67;26.37;;;;;;;2.62;100.00;99345.19;5053342;28;20299;-70
2022/03/07 01:04:56;;;;;;;86.47;29.93;;;;;;;2.59;100.00;99334.22;5053697;28;20633;-73
2022/03/07 01:07:23;;;;;;;65.70;24.83;;;;;;;2.55;100.00;99337.63;5052389;28;20204;-73
2022/03/07 01:09:50;;;;;;;67.90;27.13;;;;;;;2.57;100.00;99335.91;5052448;28;20227;-72
2022/03/07 01:12:17;;;;;;;66.87;26.07;;;;;;;2.55;100.00;99337.63;5053295;28;20209;-73
2022/03/07 01:14:44;;;;;;;66.00;26.90;;;;;;;2.55;100.00;99342.69;5052919;28;20284;-72
2022/03/07 01:17:11;;;;;;;64.33;26.00;;;;;;;2.52;100.00;99340.16;5053349;28;20295;-72
2022/03/07 01:19:38;;;;;;;64.93;25.40;;;;;;;2.41;100.00;99334.22;5053030;28;20295;-72
2022/03/07 01:22:06;;;;;;;54.57;24.23;;;;;;;2.45;100.00;99340.97;5053064;28;20220;-72
2022/03/07 01:24:36;;;;;;;52.97;23.30;;;;;;;2.38;100.00;99321.56;5052877;28;20196;-72
2022/03/07 01:27:03;;;;;;;55.93;24.27;;;;;;;2.42;100.00;99333.38;5046413;28;20196;-72
2022/03/07 01:29:30;;;;;;;55.80;24.17;;;;;;;2.46;100.00;99338.44;5052879;28;20574;-72
2022/03/07 01:31:57;;;;;;;45.60;22.67;;;;;;;2.36;100.00;99320.72;5052964;28;20197;-72
2022/03/07 01:34:24;;;;;;;55.87;23.83;;;;;;;2.45;100.00;99325.81;5053014;28;20304;-73
2022/03/07 01:36:51;;;;;;;49.87;22.20;;;;;;;2.43;100.00;99335.06;5052792;28;20649;-72
2022/03/07 01:39:19;;;;;;;50.03;20.93;;;;;;;2.42;100.00;99336.75;5052719;28;20666;-72
2022/03/07 01:41:46;;;;;;;36.37;18.47;;;;;;;2.39;100.00;99325.78;5052506;28;20242;-72
2022/03/07 01:44:20;;;;;;;40.60;19.23;;;;;;;2.40;100.00;99332.53;5052676;28;20207;-72
2022/03/07 01:46:49;;;;;;;39.33;19.20;;;;;;;2.42;100.00;99330.84;5052353;28;20238;-72
2022/03/07 01:49:16;;;;;;;43.70;19.70;;;;;;;2.41;100.00;99326.63;5052441;28;20284;-72
2022/03/07 01:51:44;;;;;;;38.80;20.30;;;;;;;2.41;100.00;99319.03;5052245;28;20201;-72
2022/03/07 01:54:14;;;;;;;38.30;20.60;;;;;;;2.48;100.00;99320.75;5052007;28;20554;-72
2022/03/07 01:56:45;;;;;;;49.53;21.63;;;;;;;2.53;100.00;99324.09;5052682;28;20208;-72
2022/03/07 01:59:12;;;;;;;48.40;22.73;;;;;;;2.52;100.00;99317.38;5052380;28;20196;-72
2022/03/07 02:01:39;;;;;;;48.43;22.30;;;;;;;2.57;100.00;99325.81;5052410;28;20319;-72
2022/03/07 02:04:07;;;;;;;50.13;23.27;;;;;;;2.57;100.00;99316.53;5050371;28;20201;-72
2022/03/07 02:06:34;;;;;;;46.40;21.53;;;;;;;2.60;100.00;99308.94;5052434;28;20207;-72
2022/03/07 02:09:01;;;;;;;58.03;22.80;;;;;;;2.60;100.00;99310.63;5051025;28;20204;-72
2022/03/07 02:11:28;;;;;;;50.50;21.03;;;;;;;2.62;100.00;99311.44;5052248;28;20283;-72
2022/03/07 02:13:56;;;;;;;49.27;21.30;;;;;;;2.71;100.00;99319.06;5052040;28;20197;-71
2022/03/07 02:16:23;;;;;;;44.77;21.33;;;;;;;2.73;100.00;99311.47;5052162;28;20691;-72
2022/03/07 02:18:51;;;;;;;48.00;22.90;;;;;;;2.77;100.00;99318.22;5052437;28;20203;-72
2022/03/07 02:21:19;;;;;;;45.57;20.30;;;;;;;2.77;100.00;99320.75;5051744;28;20267;-72
2022/03/07 02:23:48;;;;;;;45.93;21.97;;;;;;;2.79;100.00;99316.50;5052263;28;20752;-73
2022/03/07 02:26:17;;;;;;;51.10;21.87;;;;;;;2.83;100.00;99326.66;5051833;28;20703;-72
2022/03/07 02:28:45;;;;;;;58.83;22.97;;;;;;;2.88;100.00;99327.47;5051894;28;20300;-73
2022/03/07 02:31:16;;;;;;;47.40;23.13;;;;;;;2.93;100.00;99324.94;5051384;28;20215;-72
2022/03/07 02:33:43;;;;;;;51.93;20.73;;;;;;;2.97;100.00;99322.41;5052098;28;20737;-73
2022/03/07 02:36:10;;;;;;;52.90;23.67;;;;;;;3.02;100.00;99323.25;5051474;28;20604;-72
2022/03/07 02:38:37;;;;;;;51.00;21.20;;;;;;;3.07;100.00;99316.47;5051367;28;20224;-72
2022/03/07 02:41:05;;;;;;;49.10;20.80;;;;;;;3.04;100.00;99324.09;5051130;28;20593;-72
2022/03/07 02:43:32;;;;;;;49.37;21.70;;;;;;;3.03;100.00;99322.41;5051120;28;20205;-72
2022/03/07 02:46:01;;;;;;;50.73;20.67;;;;;;;2.98;100.00;99313.97;5050709;28;20197;-73
2022/03/07 02:48:28;;;;;;;45.27;21.00;;;;;;;3.08;100.00;99323.25;5051262;28;20211;-72
2022/03/07 02:50:57;;;;;;;51.73;21.93;;;;;;;3.11;100.00;99325.75;5051479;28;20665;-72
2022/03/07 02:53:24;;;;;;;48.00;20.83;;;;;;;3.12;100.00;99327.47;5050784;28;20196;-72
2022/03/07 02:55:51;;;;;;;47.87;19.97;;;;;;;3.02;100.00;99310.59;5051268;28;20262;-73
2022/03/07 02:58:20;;;;;;;44.13;21.07;;;;;;;3.15;100.00;99327.47;5051239;28;20685;-72
2022/03/07 03:00:47;;;;;;;48.73;21.53;;;;;;;3.17;100.00;99330.81;5051585;28;20192;-72
2022/03/07 03:03:14;;;;;;;56.23;21.53;;;;;;;3.18;100.00;99331.66;5050100;28;20219;-71
2022/03/07 03:05:41;;;;;;;44.73;20.97;;;;;;;3.17;100.00;99328.28;5050496;28;20299;-72
2022/03/07 03:08:08;;;;;;;50.50;22.67;;;;;;;3.21;100.00;99325.75;5050994;28;20287;-72
2022/03/07 03:10:36;;;;;;;46.87;21.37;;;;;;;3.20;100.00;99329.16;5050912;28;20288;-72
2022/03/07 03:13:03;;;;;;;47.70;21.87;;;;;;;3.22;100.00;99338.41;5051088;28;20291;-72
2022/03/07 03:15:31;;;;;;;52.70;22.30;;;;;;;3.25;100.00;99340.09;5050318;28;20208;-72
2022/03/07 03:17:58;;;;;;;49.73;20.40;;;;;;;3.28;100.00;99340.09;5051022;28;20235;-73
2022/03/07 03:20:25;;;;;;;42.30;19.37;;;;;;;3.29;100.00;99339.25;5050729;28;20577;-72
2022/03/07 03:22:52;;;;;;;52.73;22.37;;;;;;;3.30;100.00;99335.84;5050727;28;20216;-73
2022/03/07 03:25:19;;;;;;;42.33;19.90;;;;;;;3.27;100.00;99335.88;5050708;28;20212;-73
2022/03/07 03:27:46;;;;;;;51.00;20.57;;;;;;;3.26;100.00;99334.19;5050519;28;20748;-72
2022/03/07 03:30:15;;;;;;;48.17;21.13;;;;;;;2.96;100.00;99290.34;5051196;28;20283;-73
2022/03/07 03:32:44;;;;;;;42.37;20.50;;;;;;;3.24;100.00;99330.81;5050661;28;20207;-73
2022/03/07 03:35:11;;;;;;;45.47;20.00;;;;;;;3.14;100.00;99319.84;5050965;28;20292;-73
2022/03/07 03:37:39;;;;;;;47.80;20.43;;;;;;;3.21;100.00;99338.41;5050358;28;20260;-72
2022/03/07 03:40:08;;;;;;;43.57;20.00;;;;;;;3.10;100.00;99324.06;5050959;28;20296;-72
2022/03/07 03:42:35;;;;;;;55.67;21.27;;;;;;;3.16;100.00;99339.28;5050557;28;20580;-72
2022/03/07 03:45:05;;;;;;;40.70;19.30;;;;;;;3.15;100.00;99342.66;5050977;28;20291;-72
2022/03/07 03:47:32;;;;;;;47.47;21.27;;;;;;;3.10;100.00;99341.81;5050462;28;20204;-71
2022/03/07 03:50:00;;;;;;;48.73;21.93;;;;;;;3.06;100.00;99335.06;5050823;28;20279;-72
2022/03/07 03:52:27;;;;;;;46.93;20.97;;;;;;;3.07;100.00;99341.81;5050897;28;20283;-73
2022/03/07 03:54:55;;;;;;;42.90;21.13;;;;;;;3.06;100.00;99332.53;5050617;28;20211;-72
2022/03/07 03:57:22;;;;;;;49.73;22.00;;;;;;;3.06;100.00;99340.13;5050206;28;20665;-73
2022/03/07 03:59:49;;;;;;;46.00;20.30;;;;;;;3.08;100.00;99340.97;5048528;28;20205;-72
2022/03/07 04:02:17;;;;;;;43.23;20.93;;;;;;;3.05;100.00;99330.84;5049892;28;20311;-72
2022/03/07 04:04:44;;;;;;;39.73;19.87;;;;;;;3.10;100.00;99335.91;5050345;28;20248;-72
2022/03/07 04:07:12;;;;;;;41.87;21.10;;;;;;;3.04;100.00;99328.31;5050667;28;20196;-73
2022/03/07 04:09:39;;;;;;;47.60;21.07;;;;;;;3.14;100.00;99337.56;5050295;28;20209;-71
2022/03/07 04:12:06;;;;;;;39.70;18.37;;;;;;;3.10;100.00;99336.72;5050564;28;20288;-72
2022/03/07 04:14:34;;;;;;;46.10;20.97;;;;;;;3.11;100.00;99340.97;5050589;28;20197;-73
2022/03/07 04:17:00;;;;;;;44.23;19.93;;;;;;;3.14;100.00;99340.97;5050293;28;20724;-73
2022/03/07 04:19:28;;;;;;;43.70;20.63;;;;;;;3.17;100.00;99335.88;5050429;28;20284;-72
2022/03/07 04:21:55;;;;;;;41.40;19.87;;;;;;;3.19;100.00;99333.38;5050244;28;20203;-72
2022/03/07 04:24:23;;;;;;;44.57;21.07;;;;;;;3.15;100.00;99324.06;5050615;28;20283;-72
2022/03/07 04:26:50;;;;;;;46.13;20.70;;;;;;;3.22;100.00;99332.50;5050163;28;20209;-70
2022/03/07 04:29:17;;;;;;;42.60;20.17;;;;;;;3.22;100.00;99327.44;5054023;28;20283;-72
2022/03/07 04:31:45;;;;;;;42.60;21.07;;;;;;;3.12;100.00;99317.34;5053900;28;20201;-73
2022/03/07 04:34:13;;;;;;;46.00;20.53;;;;;;;3.25;100.00;99323.22;5053658;28;20288;-72
2022/03/07 04:36:41;;;;;;;41.77;21.90;;;;;;;3.26;100.00;99324.06;5053646;28;20258;-72
2022/03/07 04:39:10;;;;;;;46.87;19.33;;;;;;;3.28;100.00;99322.34;5053614;28;20800;-72
2022/03/07 04:41:39;;;;;;;41.03;19.63;;;;;;;3.30;100.00;99315.59;5053949;28;20608;-72
2022/03/07 04:44:07;;;;;;;43.80;20.50;;;;;;;3.32;100.00;99318.97;5053633;28;20666;-72
2022/03/07 04:46:34;;;;;;;40.87;20.27;;;;;;;3.31;100.00;99318.13;5053675;28;20285;-72
2022/03/07 04:49:01;;;;;;;41.50;19.87;;;;;;;3.35;100.00;99318.97;5053257;28;20208;-72
2022/03/07 04:51:28;;;;;;;47.93;19.90;;;;;;;3.33;100.00;99313.06;5053811;28;20197;-72
2022/03/07 04:53:55;;;;;;;53.10;20.10;;;;;;;3.35;100.00;99308.84;5053493;28;20196;-72
2022/03/07 04:56:22;;;;;;;38.23;19.50;;;;;;;3.39;100.00;99310.53;5046253;28;20651;-72
2022/03/07 04:58:50;;;;;;;38.03;18.87;;;;;;;3.34;100.00;99297.00;5053317;28;20288;-72
2022/03/07 05:01:17;;;;;;;56.70;21.40;;;;;;;3.43;100.00;99312.16;5052508;28;20583;-72
2022/03/07 05:03:44;;;;;;;45.30;19.53;;;;;;;3.43;100.00;99307.97;5053587;28;20239;-73
2022/03/07 05:06:11;;;;;;;44.40;20.33;;;;;;;3.43;100.00;99302.03;5053058;28;20201;-72
2022/03/07 05:08:38;;;;;;;40.93;20.47;;;;;;;3.37;100.00;99302.91;5053433;28;20211;-72
2022/03/07 05:11:06;;;;;;;48.27;23.00;;;;;;;3.42;100.00;99321.50;5052453;28;20201;-72
2022/03/07 05:13:33;;;;;;;59.97;25.70;;;;;;;3.41;100.00;99321.47;5049898;28;20205;-72
2022/03/07 05:16:03;;;;;;;56.37;27.13;;;;;;;3.41;100.00;99334.16;5052662;28;20224;-72
2022/03/07 05:18:30;;;;;;;56.47;25.70;;;;;;;3.36;100.00;99330.81;5053233;28;20197;-72
2022/03/07 05:20:57;;;;;;;51.23;24.40;;;;;;;3.31;100.00;99338.41;5053103;28;20291;-72
2022/03/07 05:23:23;;;;;;;58.50;25.50;;;;;;;3.24;100.00;99333.34;5053092;28;20216;-72
2022/03/07 05:25:50;;;;;;;72.43;29.57;;;;;;;3.22;100.00;99332.50;5053904;28;20654;-73
2022/03/07 05:28:17;;;;;;;58.03;27.50;;;;;;;3.22;100.00;99335.03;5052467;28;20295;-72
2022/03/07 05:30:44;;;;;;;53.30;25.50;;;;;;;3.25;100.00;99329.97;5052861;28;20287;-72
2022/03/07 05:33:12;;;;;;;40.70;21.37;;;;;;;3.28;100.00;99332.50;5052210;28;20283;-71
2022/03/07 05:35:39;;;;;;;46.43;20.60;;;;;;;3.29;100.00;99334.19;5052761;28;20196;-72
2022/03/07 05:38:08;;;;;;;39.73;18.80;;;;;;;3.34;100.00;99337.53;5052714;28;20274;-73
2022/03/07 05:40:35;;;;;;;45.20;22.37;;;;;;;3.34;100.00;99328.25;5052655;28;20196;-72
2022/03/07 05:43:02;;;;;;;44.40;23.00;;;;;;;3.38;100.00;99329.09;5052503;28;20217;-72
2022/03/07 05:45:29;;;;;;;50.67;22.63;;;;;;;3.38;100.00;99334.16;5052545;28;20192;-72
2022/03/07 05:47:56;;;;;;;49.83;24.07;;;;;;;3.41;100.00;99329.09;5050861;28;20592;-72
2022/03/07 05:50:24;;;;;;;50.37;24.47;;;;;;;3.39;100.00;99331.63;5052039;28;20304;-71
2022/03/07 05:52:51;;;;;;;58.43;24.70;;;;;;;3.43;100.00;99324.84;5053063;28;20251;-72
2022/03/07 05:55:18;;;;;;;54.30;23.47;;;;;;;3.43;100.00;99322.31;5051766;28;20297;-72
2022/03/07 05:57:45;;;;;;;39.43;21.07;;;;;;;3.43;100.00;99320.63;5049866;28;20197;-72
2022/03/07 06:00:13;;;;;;;49.43;22.13;;;;;;;3.46;100.00;99327.38;5052130;28;20212;-72
2022/03/07 06:02:40;;;;;;;63.83;28.50;;;;;;;3.47;100.00;99329.06;5052028;28;20286;-73
2022/03/07 06:05:08;;;;;;;69.23;32.63;;;;;;;3.48;100.00;99333.28;5052471;28;20262;-73
2022/03/07 06:07:36;;;;;;;73.10;33.97;;;;;;;3.51;100.00;99338.34;5050470;28;20295;-72
2022/03/07 06:10:04;;;;;;;41.77;22.73;;;;;;;3.46;100.00;99333.28;5051792;28;20288;-72
2022/03/07 06:12:31;;;;;;;42.10;21.33;;;;;;;3.43;100.00;99335.81;5052030;28;20217;-72
2022/03/07 06:15:03;;;;;;;41.23;21.70;;;;;;;3.45;100.00;99340.91;5052242;28;20205;-72
2022/03/07 06:17:30;;;;;;;39.07;20.60;;;;;;;3.49;100.00;99332.47;5051932;28;20215;-72
2022/03/07 06:19:57;;;;;;;50.00;25.47;;;;;;;3.50;100.00;99331.59;5052159;28;20287;-73
2022/03/07 06:22:24;;;;;;;36.67;19.13;;;;;;;3.50;100.00;99331.59;5051924;28;20201;-73
2022/03/07 06:24:52;;;;;;;33.17;17.77;;;;;;;3.48;100.00;99320.63;5051688;28;20216;-72
2022/03/07 06:27:19;;;;;;;39.63;18.70;;;;;;;3.60;100.00;99333.25;5051962;28;20201;-72
2022/03/07 06:29:46;;;;;;;40.83;22.37;;;;;;;3.67;100.00;99332.38;5051687;28;20287;-72
2022/03/07 06:32:13;;;;;;;36.80;18.90;;;;;;;3.69;100.00;99333.22;5051808;28;20208;-73
2022/03/07 06:34:40;;;;;;;32.40;18.30;;;;;;;3.70;100.00;99332.38;5051382;28;20205;-71
2022/03/07 06:37:07;;;;;;;38.33;18.73;;;;;;;3.69;100.00;99328.13;5048887;28;20209;-72
2022/03/07 06:39:34;;;;;;;35.47;18.27;;;;;;;3.67;100.00;99332.38;5051615;28;20232;-72
2022/03/07 06:42:03;;;;;;;39.47;21.43;;;;;;;3.67;100.00;99337.44;5047785;28;20279;-73
2022/03/07 06:44:30;;;;;;;32.83;18.97;;;;;;;3.67;100.00;99322.25;5048100;28;20224;-71
2022/03/07 06:46:57;;;;;;;47.20;23.03;;;;;;;3.68;100.00;99329.00;5051131;28;20677;-70
2022/03/07 06:49:23;;;;;;;43.00;21.63;;;;;;;3.69;100.00;99325.59;5047359;28;20211;-71
2022/03/07 06:51:50;;;;;;;53.03;24.43;;;;;;;3.68;100.00;99318.88;5049636;28;20291;-72
2022/03/07 06:54:17;;;;;;;42.70;23.97;;;;;;;3.67;100.00;99319.72;5049188;28;20208;-72
2022/03/07 06:56:44;;;;;;;33.50;18.10;;;;;;;3.68;100.00;99319.69;5047752;28;20204;-72
2022/03/07 06:59:12;;;;;;;30.87;18.00;;;;;;;3.67;100.00;99323.09;5049226;28;20335;-71
2022/03/07 07:01:39;;;;;;;41.13;19.87;;;;;;;3.70;100.00;99317.16;5048705;28;20241;-73
2022/03/07 07:04:06;;;;;;;28.80;18.47;;;;;;;3.78;100.00;99325.56;5049590;28;20315;-73
2022/03/07 07:06:33;;;;;;;26.37;16.60;;;;;;;3.71;100.00;99323.94;5049328;28;20212;-73
2022/03/07 07:09:00;;;;;;;25.43;15.37;;;;;;;3.69;100.00;99326.44;5048075;28;20299;-72
2022/03/07 07:11:27;;;;;;;26.97;14.60;;;;;;;3.58;100.00;99327.34;5048815;28;20211;-72
2022/03/07 07:13:54;;;;;;;28.73;15.67;;;;;;;3.61;100.00;99327.34;5050491;28;20665;-73
2022/03/07 07:16:22;;;;;;;24.27;15.00;;;;;;;3.57;100.00;99331.56;5050697;28;20204;-74
2022/03/07 07:18:49;;;;;;;33.33;17.40;;;;;;;3.54;100.00;99325.66;5049431;28;21567;-74
2022/03/07 07:21:16;;;;;;;30.00;16.13;;;;;;;3.68;100.00;99326.47;5046865;28;20212;-71
2022/03/07 07:23:43;;;;;;;30.90;16.83;;;;;;;3.76;100.00;99327.28;5049970;28;20787;-72
2022/03/07 07:26:10;;;;;;;37.07;26.20;;;;;;;3.79;100.00;99326.41;5049899;28;20212;-72
2022/03/07 07:28:37;;;;;;;46.90;31.73;;;;;;;3.80;100.00;99328.94;5049993;28;20315;-74
2022/03/07 07:31:04;;;;;;;29.07;17.37;;;;;;;3.82;100.00;99334.84;5048640;28;20597;-73
2022/03/07 07:33:32;;;;;;;28.67;17.67;;;;;;;3.93;100.00;99327.19;5050262;28;20300;-72
2022/03/07 07:35:59;;;;;;;29.90;16.97;;;;;;;3.98;100.00;99333.94;5048278;28;20669;-73
2022/03/07 07:38:26;;;;;;;26.00;15.53;;;;;;;4.01;100.00;99321.22;5050577;28;20331;-72
2022/03/07 07:40:55;;;;;;;29.63;17.47;;;;;;;4.05;100.00;99319.53;5050172;28;20291;-71
2022/03/07 07:43:22;;;;;;;35.53;19.87;;;;;;;4.15;100.00;99324.53;5049690;28;20232;-72
2022/03/07 07:45:49;;;;;;;40.17;21.40;;;;;;;4.22;100.00;99322.81;5050101;28;20322;-74
2022/03/07 07:48:16;;;;;;;34.03;21.00;;;;;;;4.22;100.00;99318.59;5049879;28;20661;-73
2022/03/07 07:50:45;;;;;;;36.93;22.90;;;;;;;4.28;100.00;99321.94;5043589;28;20197;-74
2022/03/07 07:53:11;;;;;;;32.53;20.20;;;;;;;4.34;100.00;99321.88;5043553;28;20572;-74
2022/03/07 07:55:38;;;;;;;26.67;15.87;;;;;;;4.40;100.00;99326.91;5048539;28;20275;-75
2022/03/07 07:58:05;;;;;;;36.47;20.97;;;;;;;4.44;100.00;99328.59;5048808;28;20200;-76
2022/03/07 08:00:32;;;;;;;24.97;15.37;;;;;;;4.52;100.00;99337.00;5049139;28;20287;-75
2022/03/07 08:02:59;;;;;;;22.80;13.43;;;;;;;4.57;100.00;99325.13;5052181;28;20205;-75
2022/03/07 08:05:26;;;;;;;16.60;12.13;;;;;;;4.62;100.00;99333.56;5053513;28;20219;-75
2022/03/07 08:07:55;;;;;;;15.27;12.57;;;;;;;4.60;100.00;99330.16;5053680;28;20208;-76
2022/03/07 08:10:21;;;;;;;21.23;14.07;;;;;;;4.75;100.00;99320.72;5053355;28;20579;-76
2022/03/07 08:12:49;;;;;;;23.03;14.53;;;;;;;4.86;100.00;99324.88;5052022;28;20204;-76
2022/03/07 08:15:15;;;;;;;17.37;11.97;;;;;;;4.83;100.00;99328.28;5053315;28;20558;-76
2022/03/07 08:17:46;;;;;;;22.70;16.40;;;;;;;4.89;100.00;99327.38;5053555;28;20291;-76
2022/03/07 08:20:13;;;;;;;20.03;13.20;;;;;;;4.99;100.00;99329.00;5053279;28;20201;-76
2022/03/07 08:22:40;;;;;;;14.27;12.00;;;;;;;4.93;100.00;99335.00;5053001;28;20292;-76
2022/03/07 08:25:10;;;;;;;19.67;12.03;;;;;;;4.98;100.00;99333.22;5053151;28;20225;-76
2022/03/07 08:27:37;;;;;;;19.90;15.50;;;;;;;4.97;100.00;99333.25;5052784;28;20568;-76
2022/03/07 08:30:07;;;;;;;13.93;11.27;;;;;;;4.95;100.00;99328.19;5052832;28;20201;-73
2022/03/07 08:32:35;;;;;;;10.23;9.23;;;;;;;4.94;100.00;99331.59;5052810;28;20205;-73
2022/03/07 08:35:02;;;;;;;16.10;12.23;;;;;;;4.94;100.00;99328.22;5053533;28;20193;-74
2022/03/07 08:37:30;;;;;;;15.47;12.60;;;;;;;5.03;100.00;99331.50;5052699;28;20229;-73
2022/03/07 08:39:57;;;;;;;10.97;8.77;;;;;;;5.05;100.00;99329.78;5053144;28;20295;-73
2022/03/07 08:42:25;;;;;;;10.23;8.93;;;;;;;5.00;100.00;99329.00;5050876;28;20291;-74
2022/03/07 08:44:52;;;;;;;27.17;18.57;;;;;;;5.10;100.00;99327.22;5051960;28;20220;-73
2022/03/07 08:47:19;;;;;;;22.57;15.93;;;;;;;5.18;100.00;99326.28;5050503;28;20299;-74
2022/03/07 08:49:46;;;;;;;17.90;11.23;;;;;;;5.09;100.00;99325.53;5049314;28;20627;-73
2022/03/07 08:52:15;;;;;;;18.37;12.13;;;;;;;5.05;100.00;99324.72;5051321;28;20205;-73
2022/03/07 08:54:42;;;;;;;16.33;10.87;;;;;;;5.08;100.00;99314.50;5051513;28;20192;-73
2022/03/07 08:57:10;;;;;;;16.63;11.50;;;;;;;5.17;100.00;99322.03;5051778;28;20208;-73
2022/03/07 08:59:38;;;;;;;19.97;12.57;;;;;;;5.19;100.00;99311.88;5050034;28;20203;-73
2022/03/07 09:02:06;;;;;;;22.57;13.30;;;;;;;5.23;100.00;99324.53;5052669;28;20287;-73
2022/03/07 09:04:33;;;;;;;19.60;12.17;;;;;;;5.10;100.00;99322.13;5052918;28;20228;-73
2022/03/07 09:07:00;;;;;;;15.80;12.17;;;;;;;5.03;100.00;99323.03;5053114;28;20197;-73
2022/03/07 09:09:28;;;;;;;17.73;11.90;;;;;;;5.08;100.00;99318.75;5052906;28;20209;-73
2022/03/07 09:11:55;;;;;;;24.10;15.80;;;;;;;5.06;100.00;99325.56;5052808;28;20229;-73
2022/03/07 09:14:22;;;;;;;30.67;16.93;;;;;;;5.12;100.00;99321.25;5052167;28;20216;-73
2022/03/07 09:16:50;;;;;;;31.80;18.07;;;;;;;5.21;100.00;99326.25;5052517;28;20292;-73
2022/03/07 09:19:17;;;;;;;27.83;16.53;;;;;;;5.28;100.00;99325.34;5052705;28;20201;-73
2022/03/07 09:21:44;;;;;;;21.10;12.47;;;;;;;5.37;100.00;99326.09;5052740;28;20212;-73
2022/03/07 09:24:12;;;;;;;21.50;14.33;;;;;;;5.21;100.00;99331.31;5052883;28;20693;-73
2022/03/07 09:26:39;;;;;;;50.47;27.80;;;;;;;5.21;100.00;99320.31;5052234;28;20213;-74
2022/03/07 09:29:06;;;;;;;22.80;14.20;;;;;;;5.24;100.00;99326.22;5052663;28;20296;-73
2022/03/07 09:31:33;;;;;;;21.03;13.03;;;;;;;5.18;100.00;99325.44;5052476;28;20291;-74
2022/03/07 09:34:02;;;;;;;19.13;13.53;;;;;;;5.26;100.00;99334.69;5051974;28;20279;-74
2022/03/07 09:36:29;;;;;;;16.67;11.87;;;;;;;5.34;100.00;99326.97;5049641;28;20219;-74
2022/03/07 09:38:55;;;;;;;17.60;12.43;;;;;;;5.42;100.00;99314.19;5050378;28;20731;-74
2022/03/07 09:41:23;;;;;;;18.77;13.93;;;;;;;5.50;100.00;99317.47;5050307;28;20284;-74
2022/03/07 09:43:49;;;;;;;81.43;45.20;;;;;;;5.51;100.00;99321.69;5051440;28;20225;-73
2022/03/07 09:46:17;;;;;;;37.90;22.40;;;;;;;5.49;100.00;99315.81;5050417;28;20205;-73
2022/03/07 09:48:44;;;;;;;24.10;14.90;;;;;;;5.55;100.00;99319.13;5049647;28;20212;-74
2022/03/07 09:51:13;;;;;;;18.47;12.53;;;;;;;5.51;100.00;99309.00;5050685;28;20204;-74
2022/03/07 09:53:39;;;;;;;19.93;13.33;;;;;;;5.57;100.00;99319.94;5049971;28;20732;-74
2022/03/07 09:56:06;;;;;;;19.63;12.90;;;;;;;5.56;100.00;99312.31;5051309;28;20205;-74
2022/03/07 09:58:34;;;;;;;31.47;18.30;;;;;;;5.60;100.00;99319.91;5050314;28;20204;-75
2022/03/07 10:01:13;;;;;;;26.33;15.93;;;;;;;5.56;100.00;99313.16;5051826;28;20223;-74
2022/03/07 10:03:40;;;;;;;18.63;13.33;;;;;;;5.54;100.00;99307.25;5050942;28;20211;-74
2022/03/07 10:06:14;;;;;;;22.57;15.43;;;;;;;5.57;100.00;99314.00;5051499;28;20665;-74
2022/03/07 10:08:51;;;;;;;26.63;16.17;;;;;;;5.56;100.00;99305.53;5051041;28;20223;-74
2022/03/07 10:11:18;;;;;;;23.50;16.13;;;;;;;5.56;100.00;99314.84;5050174;28;20295;-75
2022/03/07 10:13:50;;;;;;;28.63;22.10;;;;;;;5.58;100.00;99306.38;5051376;28;20653;-74
2022/03/07 10:16:20;;;;;;;30.10;18.90;;;;;;;5.60;100.00;99304.63;5051537;28;20287;-74
2022/03/07 10:18:51;;;;;;;29.03;19.87;;;;;;;5.60;100.00;99308.88;5051609;28;20669;-74
2022/03/07 10:21:26;;;;;;;26.70;16.10;;;;;;;5.60;100.00;99307.19;5051067;28;20220;-75
2022/03/07 10:23:54;;;;;;;27.03;17.50;;;;;;;5.59;100.00;99302.94;5051402;28;20770;-75
2022/03/07 10:26:21;;;;;;;29.33;17.13;;;;;;;5.60;100.00;99303.78;5050046;28;20335;-75
2022/03/07 10:28:56;;;;;;;28.00;18.07;;;;;;;5.61;100.00;99300.41;5050594;28;20201;-74
2022/03/07 10:31:23;;;;;;;33.30;22.87;;;;;;;5.53;100.00;99297.94;5049709;28;20846;-75
2022/03/07 10:34:02;;;;;;;28.33;18.70;;;;;;;5.60;100.00;99293.63;5050736;28;20197;-74
2022/03/07 10:36:35;;;;;;;28.07;17.07;;;;;;;5.60;100.00;99288.53;5050842;28;20204;-74
2022/03/07 10:39:04;;;;;;;24.57;16.57;;;;;;;5.59;100.00;99286.88;5050422;28;20625;-74
2022/03/07 10:41:36;;;;;;;37.83;22.27;;;;;;;5.51;100.00;99284.41;5050501;28;20205;-75
2022/03/07 10:44:04;;;;;;;58.83;30.40;;;;;;;5.44;100.00;99264.16;5049705;28;20224;-74
2022/03/07 10:46:31;;;;;;;30.40;17.67;;;;;;;5.55;100.00;99280.13;5050002;28;20201;-73
2022/03/07 10:48:58;;;;;;;46.83;25.97;;;;;;;5.59;100.00;99269.06;5050777;28;20283;-72
2022/03/07 10:51:26;;;;;;;40.87;20.90;;;;;;;5.52;100.00;99270.00;5050758;28;20205;-72
2022/03/07 10:53:55;;;;;;;39.40;21.13;;;;;;;5.56;100.00;99271.63;5050462;28;20200;-71
2022/03/07 10:56:24;;;;;;;89.47;41.97;;;;;;;5.58;100.00;99267.38;5049229;28;20283;-74
2022/03/07 10:58:53;;;;;;;49.50;24.93;;;;;;;5.45;100.00;99274.31;5047906;28;20216;-74
2022/03/07 11:01:30;;;;;;;43.17;21.83;;;;;;;5.45;100.00;99268.38;5047391;28;20288;-75
2022/03/07 11:03:58;;;;;;;31.43;18.80;;;;;;;5.50;100.00;99269.16;5050794;28;20296;-75
2022/03/07 11:06:26;;;;;;;32.70;17.90;;;;;;;5.41;100.00;99237.06;5050333;28;20228;-73
2022/03/07 11:08:55;;;;;;;32.60;16.47;;;;;;;5.63;100.00;99252.91;5050462;28;20724;-73
2022/03/07 11:11:22;;;;;;;30.67;15.60;;;;;;;5.56;100.00;99236.03;5050199;28;20212;-73
2022/03/07 11:13:53;;;;;;;48.23;28.57;;;;;;;5.70;100.00;99249.41;5050468;28;20287;-74
2022/03/07 11:16:22;;;;;;;37.57;23.67;;;;;;;5.77;100.00;99267.13;5048178;28;20197;-73
2022/03/07 11:18:53;;;;;;;34.53;19.97;;;;;;;5.87;100.00;99256.88;5046445;28;20200;-73